Flight Track Log - Related Links

Times and Time Zones

All times are in EDT time to prevent confusion due to time zone crossing. See the LYM752 flight status page for this flight to view local times or setup timezone preferences in your user account.

Time Position Orientation Groundspeed Altitude Reporting Facility
EDT Latitude Longitude Course Direction KTS MPH feet Rate Location/Type
Wed 11:51:34 AM 39.0833 -108.5000 159° South 126 145 6,600  Level Denver TRACON
Wed 11:52:28 AM 39.0500 -108.4833 159° South 129 148 7,600 1,161 Climbing Denver TRACON
Wed 11:53:07 AM 39.0292 -108.4789 171° South 126 145 8,400 1,069 Climbing Denver Center
Wed 11:54:09 AM 38.9972 -108.4642 160° South 124 143 9,400 1,065 Climbing Denver Center
Wed 11:55:11 AM 38.9614 -108.4472 160° South 127 146 10,600 1,065 Climbing Denver Center
Wed 11:56:13 AM 38.9433 -108.4083 121° Southeast 133 153 11,600 960 Climbing Denver Center
Wed 11:57:16 AM 38.9261 -108.3600 115° Southeast 137 158 12,600 960 Climbing Denver Center
Wed 11:58:18 AM 38.9117 -108.3161 113° Southeast 136 157 13,600 968 Climbing Denver Center
Wed 11:59:20 AM 38.8942 -108.2658 114° Southeast 142 163 14,600 871 Climbing Denver Center
Wed 12:00:22 PM 38.8781 -108.2183 114° Southeast 145 167 15,400 774 Climbing Denver Center
Wed 12:01:24 PM 38.8589 -108.1664 115° Southeast 149 171 16,200 726 Climbing Denver Center
Wed 12:02:26 PM 38.8411 -108.1161 114° Southeast 154 177 16,900 677 Climbing Denver Center
Wed 12:03:28 PM 38.8228 -108.0672 116° Southeast 153 176 17,600 532 Climbing Denver Center
Wed 12:04:30 PM 38.8067 -108.0147 111° Southeast 158 182 18,000 484 Climbing Denver Center
Wed 12:05:32 PM 38.7881 -107.9625 115° Southeast 162 186 18,600 435 Climbing Denver Center
Wed 12:06:34 PM 38.7667 -107.9092 117° Southeast 169 194 18,900 145 Climbing Denver Center
Wed 12:07:36 PM 38.7436 -107.8342 111° Southeast 185 213 18,900 48 Level Denver Center
Wed 12:08:38 PM 38.7208 -107.7678 114° Southeast 199 229 19,000 48 Climbing Denver Center
Wed 12:09:40 PM 38.6967 -107.7014 115° Southeast 205 236 19,000 -48 Level Denver Center
Wed 12:10:42 PM 38.6711 -107.6311 115° Southeast 213 245 18,900 -48 Descending Denver Center
Wed 12:11:45 PM 38.6458 -107.5600 114° Southeast 218 251 18,900 48 Level Denver Center
Wed 12:12:47 PM 38.6156 -107.4794 116° Southeast 218 251 19,000 48 Climbing Denver Center
Wed 12:13:49 PM 38.5903 -107.4122 116° Southeast 213 245 19,000  Level Denver Center
Wed 12:14:51 PM 38.5625 -107.3447 118° Southeast 214 246 19,000 -48 Level Denver Center
Wed 12:15:53 PM 38.5364 -107.2764 116° Southeast 214 246 18,900 -48 Descending Denver Center
Wed 12:16:55 PM 38.5081 -107.2083 118° Southeast 217 250 18,900  Level Denver Center
Wed 12:17:57 PM 38.4811 -107.1389 116° Southeast 218 251 18,900 97 Level Denver Center
Wed 12:18:59 PM 38.4492 -107.0556 116° Southeast 219 252 19,100  Climbing Denver Center
Wed 12:20:01 PM 38.4508 -106.9844 88° East 212 244 18,900  Descending Denver Center
Wed 12:21:03 PM 38.4714 -106.9167 69° East 204 235 19,100 48 Climbing Denver Center
Wed 12:22:05 PM 38.4928 -106.8483 68° East 208 239 19,000  Descending Denver Center
Wed 12:23:07 PM 38.5172 -106.7836 64° Northeast 204 235 19,100  Climbing Denver Center
Wed 12:24:09 PM 38.5433 -106.7175 63° Northeast 207 238 19,000 -48 Descending Denver Center
Wed 12:25:11 PM 38.5722 -106.6375 65° Northeast 207 238 19,000  Level Denver Center
Wed 12:26:13 PM 38.5967 -106.5700 65° Northeast 208 239 19,000  Level Denver Center
Wed 12:27:15 PM 38.6206 -106.5047 65° Northeast 205 236 19,000 -48 Level Denver Center
Wed 12:28:17 PM 38.6461 -106.4383 64° Northeast 207 238 18,900  Descending Denver Center
Wed 12:29:19 PM 38.6681 -106.3714 67° East 205 236 19,000  Climbing Denver Center
Wed 12:30:21 PM 38.6889 -106.3036 68° East 205 236 18,900 48 Descending Denver Center
Wed 12:31:23 PM 38.7144 -106.2236 68° East 202 232 19,100 96 Climbing Denver Center
Wed 12:32:26 PM 38.7361 -106.1564 68° East 204 235 19,100  Level Denver Center
Wed 12:33:28 PM 38.7578 -106.0861 68° East 206 237 19,100 -48 Level Denver Center
Wed 12:34:30 PM 38.7822 -106.0244 63° Northeast 205 236 19,000 -48 Descending Denver Center
Wed 12:35:32 PM 38.8247 -105.9667 47° Northeast 199 229 19,000  Level Denver Center
Wed 12:36:34 PM 38.8589 -105.9164 49° Northeast 196 226 19,000 -48 Level Denver Center
Wed 12:37:36 PM 38.8989 -105.8569 49° Northeast 196 226 18,900 -290 Descending Denver Center
Wed 12:38:38 PM 38.9308 -105.8022 53° Northeast 201 231 18,400 -532 Descending Denver Center
Wed 12:39:40 PM 38.9722 -105.7350 52° Northeast 212 244 17,800 -532 Descending Denver Center
Wed 12:40:42 PM 39.0089 -105.6794 50° Northeast 213 245 17,300 -774 Descending Denver Center
Wed 12:41:44 PM 39.0456 -105.6219 51° Northeast 216 249 16,200 -1,113 Descending Denver Center
Wed 12:42:46 PM 39.0939 -105.5472 50° Northeast 233 268 15,000 -581 Descending Denver Center
Wed 12:43:48 PM 39.1303 -105.4919 50° Northeast 221 254 15,000 -48 Level Denver Center
Wed 12:44:50 PM 39.1706 -105.4292 50° Northeast 202 232 14,900 48 Descending Denver Center
Wed 12:45:52 PM 39.2044 -105.3775 50° Northeast 191 220 15,100 48 Climbing Denver Center
Wed 12:46:54 PM 39.2494 -105.3497 26° Northeast 180 207 15,000 -387 Descending Denver Center
Wed 12:47:56 PM 39.3069 -105.3303 15° North 196 226 14,300 -484 Descending Denver Center
Wed 12:48:58 PM 39.3625 -105.3122 14° North 204 235 14,000 -145 Descending Denver Center
Wed 12:50:00 PM 39.3944 -105.2628 50° Northeast 201 231 14,000 -339 Level Denver Center
Wed 12:51:02 PM 39.3847 -105.1894 100° East 209 241 13,300 -484 Descending Denver Center
Wed 12:52:04 PM 39.3742 -105.1050 99° East 218 251 13,000 -145 Descending Denver Center
Wed 12:53:06 PM 39.3656 -105.0317 99° East 210 242 13,000 48 Level Denver Center
Wed 12:54:08 PM 39.3567 -104.9553 99° East 201 231 13,100  Climbing Denver Center
Wed 12:55:10 PM 39.3472 -104.8842 100° East 202 232 13,000  Descending Denver Center
Wed 12:56:13 PM 39.3369 -104.8081 100° East 202 232 13,100  Climbing Denver Center
Wed 12:57:15 PM 39.3278 -104.7367 99° East 202 232 13,000 -435 Descending Denver Center
Wed 12:58:17 PM 39.3556 -104.6797 58° Northeast 212 244 12,200 -484 Descending Denver Center
Wed 12:59:19 PM 39.4114 -104.6631 13° North 192 221 12,000 -97 Descending Denver Center
Wed 01:00:21 PM 39.4603 -104.6597 North 179 206 12,000  Level Denver Center
Wed 01:01:23 PM 39.5139 -104.6628 357° North 179 206 12,000 48 Level Denver Center
Wed 01:02:25 PM 39.5636 -104.6614 North 179 206 12,100  Climbing Denver Center
Wed 01:03:27 PM 39.6178 -104.6608 360° North 180 207 12,000 -194 Descending Denver Center
Wed 01:04:29 PM 39.6675 -104.6608 360° North 180 207 11,700 -1,306 Descending Denver Center
Wed 01:05:31 PM 39.7150 -104.6611 360° North 163 188 9,300 -2,081 Descending Denver Center
Wed 01:06:33 PM 39.7608 -104.6608 360° North 164 189 7,400 -1,548 Descending Denver Center
Wed 01:07:35 PM 39.8067 -104.6611 360° North 155 178 6,100 -919 Descending Denver Center
Wed 01:08:37 PM 39.8436 -104.6603 North 139 160 5,500 -581 Descending Denver Center
Wed 01:10:00 PM 39.8500 -104.6667 347° North  Level FlightAware Approximate
Wed 01:17:00 PM 39.8617 -104.6732 347° North  Level Estimated
Wed 01:18:00 PM 39.8617 -104.6732 347° North  Level Estimated
Wed 01:19:00 PM 39.8617 -104.6732 347° North  Level Estimated

Login

Don't have an account? Register now (free) for customized features, flight alerts, and more!